METAR Data
IDs: Format: Raw Decoded Include TAF

Data at: 0203 UTC 25 Mar 2019

KMCW 250153Z AUTO 02008KT 10SM BKN050 OVC060 06/04 A3016 RMK AO2 SLP217 T00610039
KMCW 250053Z AUTO 02008KT 10SM SCT043 OVC060 07/04 A3014 RMK AO2 SLP208 T00670039
KMCW 242353Z AUTO 03011KT 10SM SCT041 OVC055 08/05 A3011 RMK AO2 SLP199 T00830050 10100 20078 53016
KMCW 242253Z AUTO 04008KT 10SM OVC031 09/06 A3009 RMK AO2 SLP191 T00890061
KMCW 242231Z AUTO 04008KT 10SM OVC031 09/06 A3009 RMK AO2 T00890056
KMCW 242153Z AUTO 05008KT 10SM OVC026 09/06 A3008 RMK AO2 SLP189 T00940056
KMCW 242053Z AUTO 06012KT 10SM OVC022 09/06 A3006 RMK AO2 SLP182 T00890056 53000
KMCW 241953Z AUTO 04012KT 9SM BKN017 OVC022 09/07 A3005 RMK AO2 SLP178 T00940072
KMCW 241920Z AUTO 04012KT 10SM SCT017 BKN022 OVC043 10/07 A3006 RMK AO2 T01000072
KMCW 241853Z AUTO 04011KT 9SM FEW019 FEW031 OVC043 09/07 A3006 RMK AO2 SLP180 T00940067
KMCW 241812Z AUTO 06011KT 9SM FEW015 SCT027 OVC042 08/06 A3006 RMK AO2 T00830061
KMCW 241753Z AUTO 07009KT 9SM BKN015 BKN022 OVC029 08/06 A3006 RMK AO2 SLP182 T00780061 10078 20039 55001
KMCW 241653Z AUTO 04012KT 7SM FEW009 BKN023 OVC037 07/06 A3006 RMK AO2 SLP182 T00670056
KMCW 241643Z AUTO 04012KT 7SM FEW007 BKN023 OVC037 07/06 A3007 RMK AO2 T00670056
KMCW 241553Z AUTO 05010KT 6SM BR FEW005 OVC036 06/05 A3006 RMK AO2 SLP181 T00610050
KMCW 241541Z AUTO 05009KT 5SM BR SCT005 SCT024 OVC035 06/05 A3006 RMK AO2 T00560050
KMCW 241529Z AUTO 05009KT 5SM BR BKN005 BKN019 OVC025 06/05 A3006 RMK AO2 T00560050
KMCW 241453Z AUTO 04007KT 4SM BR SCT004 OVC017 04/04 A3007 RMK AO2 SLP184 T00440044 51005
KMCW 241419Z AUTO 06006KT 3SM BR BKN004 OVC014 04/04 A3007 RMK AO2 T00390039
KMCW 241353Z AUTO 06006KT 2 1/2SM BR BKN004 OVC015 04/04 A3006 RMK AO2 SLP183 T00390039
KMCW 241331Z AUTO 08005KT 3SM BR OVC004 04/04 A3006 RMK AO2 T00390039
KMCW 241253Z AUTO 08007KT 2 1/2SM BR OVC003 04/04 A3006 RMK AO2 SLP181 T00390039
KMCW 241231Z AUTO 08006KT 2SM BR OVC003 04/04 A3005 RMK AO2 T00390039
KMCW 241153Z AUTO 09006KT 4SM BR BKN004 OVC025 04/04 A3005 RMK AO2 SLP178 60000 T00390039 10050 20039 55006
KMCW 241145Z AUTO 10006KT 5SM BR BKN004 OVC025 04/04 A3005 RMK AO2 T00390039
KMCW 241136Z AUTO 11005KT 6SM BR FEW005 SCT009 OVC025 04/04 A3005 RMK AO2 T00390039
KMCW 241111Z AUTO 12007KT 7SM BKN025 OVC050 04/04 A3004 RMK AO2 T00390039
KMCW 241053Z AUTO 11007KT 7SM FEW025 OVC050 04/04 A3004 RMK AO2 SLP175 T00390039
KMCW 241014Z AUTO 12007KT 9SM SCT025 OVC032 04/04 A3005 RMK AO2 T00390039
KMCW 240953Z AUTO 13006KT 8SM OVC024 04/04 A3006 RMK AO2 RAB29E40 SLP179 P0000 T00390039
KMCW 240922Z AUTO 12005KT 6SM BR SCT013 OVC026 04/04 A3006 RMK AO2 T00390039
KMCW 240910Z AUTO 11008KT 3SM BR BKN013 OVC024 04/04 A3006 RMK AO2 T00390039
KMCW 240853Z AUTO 13007KT 4SM BR OVC023 04/03 A3007 RMK AO2 RAE18 SLP183 P0000 60000 T00440033 58011
KMCW 240829Z AUTO 12007KT 10SM SCT021 BKN029 OVC049 05/02 A3008 RMK AO2 RAE18 P0000 T00500022
KMCW 240753Z AUTO 12005KT 9SM -RA OVC039 04/02 A3009 RMK AO2 RAB49 SLP189 P0000 T00440022
KMCW 240653Z AUTO 07004KT 10SM BKN036 OVC075 04/02 A3009 RMK AO2 SLP190 T00440022
KMCW 240553Z AUTO 00000KT 10SM OVC080 05/02 A3010 RMK AO2 SLP195 T00500022 10083 20050 401171056 55002
KMCW 240453Z AUTO 12007KT 10SM OVC080 06/02 A3010 RMK AO2 SLP195 T00560022
KMCW 240353Z AUTO 13008KT 10SM OVC090 06/02 A3010 RMK AO2 SLP198 T00610022
KMCW 240253Z AUTO 13008KT 10SM OVC100 07/02 A3011 RMK AO2 SLP199 T00670022 56009
KMCW 240153Z AUTO 13008KT 10SM BKN100 07/03 A3012 RMK AO2 SLP204 T00670028
KMCW 240053Z AUTO 12006KT 10SM OVC100 07/04 A3012 RMK AO2 SLP206 T00670039
KMCW 232353Z AUTO 14006KT 10SM OVC095 08/04 A3013 RMK AO2 SLP211 T00830039 10117 20083 56007
KMCW 232253Z AUTO 15008KT 10SM SCT100 OVC120 09/03 A3014 RMK AO2 SLP212 T00940033
KMCW 232153Z AUTO 15010KT 10SM CLR 10/03 A3014 RMK AO2 SLP214 T01000028
KMCW 232053Z AUTO 14008KT 10SM CLR 11/03 A3015 RMK AO2 SLP216 T01060028 58017
KMCW 231953Z AUTO 19005KT 10SM CLR 11/03 A3017 RMK AO2 SLP222 T01060028
KMCW 231853Z AUTO 17008KT 10SM CLR 10/03 A3019 RMK AO2 SLP230 T01000033
KMCW 231753Z AUTO 18007KT 10SM CLR 09/03 A3020 RMK AO2 SLP234 I6000 T00890028 10089 21050 58008
KMCW 231653Z AUTO 18008KT 10SM CLR 08/02 A3022 RMK AO2 SLP239 T00780022
KMCW 231553Z AUTO 16006KT 10SM CLR 05/01 A3023 RMK AO2 SLP242 T00500006
KMCW 231453Z AUTO 15005KT 10SM CLR 03/M01 A3023 RMK AO2 SLP244 I3000 T00331006 58004